sensor_id;sensor_type;location;lat;lon;timestamp;temperature;humidity
49855;DHT22;35752;52.164;21.244;2022-09-01T00:01:44;12.80;99.90
49855;DHT22;35752;52.164;21.244;2022-09-01T00:04:13;12.70;99.90
49855;DHT22;35752;52.164;21.244;2022-09-01T00:06:40;12.70;99.90
49855;DHT22;35752;52.164;21.244;2022-09-01T00:09:12;12.70;99.90
49855;DHT22;35752;52.164;21.244;2022-09-01T00:11:39;12.70;99.90
49855;DHT22;35752;52.164;21.244;2022-09-01T00:14:06;12.60;99.90
49855;DHT22;35752;52.164;21.244;2022-09-01T00:16:32;12.60;99.90
49855;DHT22;35752;52.164;21.244;2022-09-01T00:18:58;12.60;99.90
49855;DHT22;35752;52.164;21.244;2022-09-01T00:21:30;12.50;99.90
49855;DHT22;35752;52.164;21.244;2022-09-01T00:23:56;12.40;99.90
49855;DHT22;35752;52.164;21.244;2022-09-01T00:26:23;12.40;99.90
49855;DHT22;35752;52.164;21.244;2022-09-01T00:28:48;12.30;99.90
49855;DHT22;35752;52.164;21.244;2022-09-01T00:31:15;12.30;99.90
49855;DHT22;35752;52.164;21.244;2022-09-01T00:33:41;12.20;99.90
49855;DHT22;35752;52.164;21.244;2022-09-01T00:36:07;12.10;99.90
49855;DHT22;35752;52.164;21.244;2022-09-01T00:38:33;12.20;99.90
49855;DHT22;35752;52.164;21.244;2022-09-01T00:40:59;12.10;99.90
49855;DHT22;35752;52.164;21.244;2022-09-01T00:46:12;12.00;99.90
49855;DHT22;35752;52.164;21.244;2022-09-01T00:48:39;11.90;99.90
49855;DHT22;35752;52.164;21.244;2022-09-01T00:51:06;11.80;99.90
49855;DHT22;35752;52.164;21.244;2022-09-01T00:53:33;11.80;99.90
49855;DHT22;35752;52.164;21.244;2022-09-01T00:56:01;11.80;99.90
49855;DHT22;35752;52.164;21.244;2022-09-01T00:58:28;11.70;99.90
49855;DHT22;35752;52.164;21.244;2022-09-01T01:00:54;11.70;99.90
49855;DHT22;35752;52.164;21.244;2022-09-01T01:03:20;11.60;99.90
49855;DHT22;35752;52.164;21.244;2022-09-01T01:05:50;11.60;99.90
49855;DHT22;35752;52.164;21.244;2022-09-01T01:08:24;11.50;99.90
49855;DHT22;35752;52.164;21.244;2022-09-01T01:11:00;11.50;99.90
49855;DHT22;35752;52.164;21.244;2022-09-01T01:13:26;11.50;99.90
49855;DHT22;35752;52.164;21.244;2022-09-01T01:16:01;11.40;99.90
49855;DHT22;35752;52.164;21.244;2022-09-01T01:18:27;11.40;99.90
49855;DHT22;35752;52.164;21.244;2022-09-01T01:21:17;11.40;99.90
49855;DHT22;35752;52.164;21.244;2022-09-01T01:24:05;11.30;99.90
49855;DHT22;35752;52.164;21.244;2022-09-01T01:26:32;11.20;99.90
49855;DHT22;35752;52.164;21.244;2022-09-01T01:28:58;11.10;99.90
49855;DHT22;35752;52.164;21.244;2022-09-01T01:31:27;11.00;99.90
49855;DHT22;35752;52.164;21.244;2022-09-01T01:33:55;11.10;99.90
49855;DHT22;35752;52.164;21.244;2022-09-01T01:36:26;11.10;99.90
49855;DHT22;35752;52.164;21.244;2022-09-01T01:38:59;11.10;99.90
49855;DHT22;35752;52.164;21.244;2022-09-01T01:41:28;11.00;99.90
49855;DHT22;35752;52.164;21.244;2022-09-01T01:43:57;10.90;99.90
49855;DHT22;35752;52.164;21.244;2022-09-01T01:46:23;10.90;99.90
49855;DHT22;35752;52.164;21.244;2022-09-01T01:48:50;10.90;99.90
49855;DHT22;35752;52.164;21.244;2022-09-01T01:51:17;10.80;99.90
49855;DHT22;35752;52.164;21.244;2022-09-01T01:53:47;10.80;99.90
49855;DHT22;35752;52.164;21.244;2022-09-01T01:56:17;10.90;99.90
49855;DHT22;35752;52.164;21.244;2022-09-01T01:58:44;10.80;99.90
49855;DHT22;35752;52.164;21.244;2022-09-01T02:01:10;10.60;99.90
49855;DHT22;35752;52.164;21.244;2022-09-01T02:03:37;10.70;99.90
49855;DHT22;35752;52.164;21.244;2022-09-01T02:06:06;10.60;99.90
49855;DHT22;35752;52.164;21.244;2022-09-01T02:08:37;10.60;99.90
49855;DHT22;35752;52.164;21.244;2022-09-01T02:11:05;10.60;99.90
49855;DHT22;35752;52.164;21.244;2022-09-01T02:13:31;10.60;99.90
49855;DHT22;35752;52.164;21.244;2022-09-01T02:16:05;10.60;99.90
49855;DHT22;35752;52.164;21.244;2022-09-01T02:18:37;10.60;99.90
49855;DHT22;35752;52.164;21.244;2022-09-01T02:21:05;10.50;99.90
49855;DHT22;35752;52.164;21.244;2022-09-01T02:23:38;10.40;99.90
49855;DHT22;35752;52.164;21.244;2022-09-01T02:26:07;10.30;99.90
49855;DHT22;35752;52.164;21.244;2022-09-01T02:28:37;10.30;99.90
49855;DHT22;35752;52.164;21.244;2022-09-01T02:31:07;10.40;99.90
49855;DHT22;35752;52.164;21.244;2022-09-01T02:33:34;10.30;99.90
49855;DHT22;35752;52.164;21.244;2022-09-01T02:36:04;10.30;99.90
49855;DHT22;35752;52.164;21.244;2022-09-01T02:38:30;10.30;99.90
49855;DHT22;35752;52.164;21.244;2022-09-01T02:40:59;10.20;99.90
49855;DHT22;35752;52.164;21.244;2022-09-01T02:43:27;10.10;99.90
49855;DHT22;35752;52.164;21.244;2022-09-01T02:45:55;10.10;99.90
49855;DHT22;35752;52.164;21.244;2022-09-01T02:48:33;10.10;99.90
49855;DHT22;35752;52.164;21.244;2022-09-01T02:51:07;10.00;99.90
49855;DHT22;35752;52.164;21.244;2022-09-01T02:53:34;10.00;99.90
49855;DHT22;35752;52.164;21.244;2022-09-01T02:56:04;10.00;99.90
49855;DHT22;35752;52.164;21.244;2022-09-01T02:58:34;9.90;99.90
49855;DHT22;35752;52.164;21.244;2022-09-01T03:01:17;9.80;99.90
49855;DHT22;35752;52.164;21.244;2022-09-01T03:03:51;9.80;99.90
49855;DHT22;35752;52.164;21.244;2022-09-01T03:06:18;9.70;99.90
49855;DHT22;35752;52.164;21.244;2022-09-01T03:08:52;9.70;99.90
49855;DHT22;35752;52.164;21.244;2022-09-01T03:11:18;9.70;99.90
49855;DHT22;35752;52.164;21.244;2022-09-01T03:13:44;9.70;99.90
49855;DHT22;35752;52.164;21.244;2022-09-01T03:16:10;9.70;99.90
49855;DHT22;35752;52.164;21.244;2022-09-01T03:18:37;9.60;99.90
49855;DHT22;35752;52.164;21.244;2022-09-01T03:21:03;9.60;99.90
49855;DHT22;35752;52.164;21.244;2022-09-01T03:23:31;9.60;99.90
49855;DHT22;35752;52.164;21.244;2022-09-01T03:25:58;9.60;99.90
49855;DHT22;35752;52.164;21.244;2022-09-01T03:28:24;9.60;99.90
49855;DHT22;35752;52.164;21.244;2022-09-01T03:30:52;9.60;99.90
49855;DHT22;35752;52.164;21.244;2022-09-01T03:33:20;9.60;99.90
49855;DHT22;35752;52.164;21.244;2022-09-01T03:35:46;9.50;99.90
49855;DHT22;35752;52.164;21.244;2022-09-01T03:38:12;9.50;99.90
49855;DHT22;35752;52.164;21.244;2022-09-01T03:40:50;9.40;99.90
49855;DHT22;35752;52.164;21.244;2022-09-01T03:43:18;9.40;99.90
49855;DHT22;35752;52.164;21.244;2022-09-01T03:45:47;9.50;99.90
49855;DHT22;35752;52.164;21.244;2022-09-01T03:48:13;9.50;99.90
49855;DHT22;35752;52.164;21.244;2022-09-01T03:50:42;9.50;99.90
49855;DHT22;35752;52.164;21.244;2022-09-01T03:53:13;9.50;99.90
49855;DHT22;35752;52.164;21.244;2022-09-01T03:55:39;9.50;99.90
49855;DHT22;35752;52.164;21.244;2022-09-01T03:58:07;9.50;99.90
49855;DHT22;35752;52.164;21.244;2022-09-01T04:00:36;9.50;99.90
49855;DHT22;35752;52.164;21.244;2022-09-01T04:03:05;9.50;99.90
49855;DHT22;35752;52.164;21.244;2022-09-01T04:05:33;9.60;99.90
49855;DHT22;35752;52.164;21.244;2022-09-01T04:08:01;9.60;99.90
49855;DHT22;35752;52.164;21.244;2022-09-01T04:10:45;9.60;99.90
49855;DHT22;35752;52.164;21.244;2022-09-01T04:13:29;9.60;99.90
49855;DHT22;35752;52.164;21.244;2022-09-01T04:15:57;9.60;99.90
49855;DHT22;35752;52.164;21.244;2022-09-01T04:18:24;9.60;99.90
49855;DHT22;35752;52.164;21.244;2022-09-01T04:20:55;9.60;99.90
49855;DHT22;35752;52.164;21.244;2022-09-01T04:23:26;9.60;99.90
49855;DHT22;35752;52.164;21.244;2022-09-01T04:25:57;9.60;99.90
49855;DHT22;35752;52.164;21.244;2022-09-01T04:28:30;9.60;99.90
49855;DHT22;35752;52.164;21.244;2022-09-01T04:30:59;9.70;99.90
49855;DHT22;35752;52.164;21.244;2022-09-01T04:33:30;9.80;99.90
49855;DHT22;35752;52.164;21.244;2022-09-01T04:36:15;9.80;99.90
49855;DHT22;35752;52.164;21.244;2022-09-01T04:38:46;9.90;99.90
49855;DHT22;35752;52.164;21.244;2022-09-01T04:41:12;10.00;99.90
49855;DHT22;35752;52.164;21.244;2022-09-01T04:43:45;10.10;99.90
49855;DHT22;35752;52.164;21.244;2022-09-01T04:46:12;10.20;99.90
49855;DHT22;35752;52.164;21.244;2022-09-01T04:48:39;10.20;99.90
49855;DHT22;35752;52.164;21.244;2022-09-01T04:51:07;10.20;99.90
49855;DHT22;35752;52.164;21.244;2022-09-01T04:53:35;10.30;99.90
49855;DHT22;35752;52.164;21.244;2022-09-01T04:56:07;10.40;99.90
49855;DHT22;35752;52.164;21.244;2022-09-01T04:58:35;10.40;99.90
49855;DHT22;35752;52.164;21.244;2022-09-01T05:01:19;10.60;99.90
49855;DHT22;35752;52.164;21.244;2022-09-01T05:03:49;10.70;99.90
49855;DHT22;35752;52.164;21.244;2022-09-01T05:06:27;10.80;99.90
49855;DHT22;35752;52.164;21.244;2022-09-01T05:08:54;10.90;99.90
49855;DHT22;35752;52.164;21.244;2022-09-01T05:11:23;11.00;99.90
49855;DHT22;35752;52.164;21.244;2022-09-01T05:13:50;11.10;99.90
49855;DHT22;35752;52.164;21.244;2022-09-01T05:16:19;11.20;99.90
49855;DHT22;35752;52.164;21.244;2022-09-01T05:18:47;11.30;99.90
49855;DHT22;35752;52.164;21.244;2022-09-01T05:21:19;11.40;99.90
49855;DHT22;35752;52.164;21.244;2022-09-01T05:23:47;11.50;99.90
49855;DHT22;35752;52.164;21.244;2022-09-01T05:26:19;11.50;99.90
49855;DHT22;35752;52.164;21.244;2022-09-01T05:28:55;11.70;99.90
49855;DHT22;35752;52.164;21.244;2022-09-01T05:31:23;11.80;99.90
49855;DHT22;35752;52.164;21.244;2022-09-01T05:33:49;11.90;99.90
49855;DHT22;35752;52.164;21.244;2022-09-01T05:36:18;12.00;99.90
49855;DHT22;35752;52.164;21.244;2022-09-01T05:38:45;12.10;99.90
49855;DHT22;35752;52.164;21.244;2022-09-01T05:41:16;12.20;99.90
49855;DHT22;35752;52.164;21.244;2022-09-01T05:43:44;12.30;99.90
49855;DHT22;35752;52.164;21.244;2022-09-01T05:46:16;12.40;99.90
49855;DHT22;35752;52.164;21.244;2022-09-01T05:48:44;12.50;99.90
49855;DHT22;35752;52.164;21.244;2022-09-01T05:51:11;12.60;99.90
49855;DHT22;35752;52.164;21.244;2022-09-01T05:53:41;12.70;99.90
49855;DHT22;35752;52.164;21.244;2022-09-01T05:56:09;12.80;99.90
49855;DHT22;35752;52.164;21.244;2022-09-01T05:58:37;13.00;99.90
49855;DHT22;35752;52.164;21.244;2022-09-01T06:01:05;13.10;99.90
49855;DHT22;35752;52.164;21.244;2022-09-01T06:03:32;13.20;99.90
49855;DHT22;35752;52.164;21.244;2022-09-01T06:06:03;13.30;99.90
49855;DHT22;35752;52.164;21.244;2022-09-01T06:08:31;13.40;99.90
49855;DHT22;35752;52.164;21.244;2022-09-01T06:10:56;13.50;99.90
49855;DHT22;35752;52.164;21.244;2022-09-01T06:13:23;13.60;99.90
49855;DHT22;35752;52.164;21.244;2022-09-01T06:15:49;13.70;99.90
49855;DHT22;35752;52.164;21.244;2022-09-01T06:18:15;13.80;99.90
49855;DHT22;35752;52.164;21.244;2022-09-01T06:20:44;13.90;99.90
49855;DHT22;35752;52.164;21.244;2022-09-01T06:23:11;13.90;99.90
49855;DHT22;35752;52.164;21.244;2022-09-01T06:25:43;14.00;99.90
49855;DHT22;35752;52.164;21.244;2022-09-01T06:28:16;14.10;99.90
49855;DHT22;35752;52.164;21.244;2022-09-01T06:30:43;14.10;99.90
49855;DHT22;35752;52.164;21.244;2022-09-01T06:33:10;14.30;99.90
49855;DHT22;35752;52.164;21.244;2022-09-01T06:35:45;14.30;99.90
49855;DHT22;35752;52.164;21.244;2022-09-01T06:38:12;14.50;99.90
49855;DHT22;35752;52.164;21.244;2022-09-01T06:40:39;14.50;99.90
49855;DHT22;35752;52.164;21.244;2022-09-01T06:43:07;14.70;99.90
49855;DHT22;35752;52.164;21.244;2022-09-01T06:45:39;14.70;99.90
49855;DHT22;35752;52.164;21.244;2022-09-01T06:48:06;14.90;99.90
49855;DHT22;35752;52.164;21.244;2022-09-01T06:50:32;15.00;99.90
49855;DHT22;35752;52.164;21.244;2022-09-01T06:52:58;15.10;99.90
49855;DHT22;35752;52.164;21.244;2022-09-01T06:55:38;15.10;99.90
49855;DHT22;35752;52.164;21.244;2022-09-01T06:58:05;15.30;99.90
49855;DHT22;35752;52.164;21.244;2022-09-01T07:00:35;15.30;99.90
49855;DHT22;35752;52.164;21.244;2022-09-01T07:03:15;15.40;99.90
49855;DHT22;35752;52.164;21.244;2022-09-01T07:05:44;15.50;99.90
49855;DHT22;35752;52.164;21.244;2022-09-01T07:08:13;15.70;99.90
49855;DHT22;35752;52.164;21.244;2022-09-01T07:10:45;15.70;99.90
49855;DHT22;35752;52.164;21.244;2022-09-01T07:13:20;15.70;99.90
49855;DHT22;35752;52.164;21.244;2022-09-01T07:15:52;15.70;99.90
49855;DHT22;35752;52.164;21.244;2022-09-01T07:18:22;15.80;99.90
49855;DHT22;35752;52.164;21.244;2022-09-01T07:20:50;15.90;99.90
49855;DHT22;35752;52.164;21.244;2022-09-01T07:23:17;16.00;99.90
49855;DHT22;35752;52.164;21.244;2022-09-01T07:25:47;16.10;99.90
49855;DHT22;35752;52.164;21.244;2022-09-01T07:28:15;16.20;99.90
49855;DHT22;35752;52.164;21.244;2022-09-01T07:30:46;16.30;99.90
49855;DHT22;35752;52.164;21.244;2022-09-01T07:33:16;16.30;99.90
49855;DHT22;35752;52.164;21.244;2022-09-01T07:35:45;16.40;99.90
49855;DHT22;35752;52.164;21.244;2022-09-01T07:38:12;16.50;99.90
49855;DHT22;35752;52.164;21.244;2022-09-01T07:40:40;16.60;99.90
49855;DHT22;35752;52.164;21.244;2022-09-01T07:43:25;16.60;99.90
49855;DHT22;35752;52.164;21.244;2022-09-01T07:45:55;16.70;99.90
49855;DHT22;35752;52.164;21.244;2022-09-01T07:48:24;16.60;99.90
49855;DHT22;35752;52.164;21.244;2022-09-01T07:50:53;16.60;99.90
49855;DHT22;35752;52.164;21.244;2022-09-01T07:53:27;16.60;99.90
49855;DHT22;35752;52.164;21.244;2022-09-01T07:55:57;16.60;99.90
49855;DHT22;35752;52.164;21.244;2022-09-01T07:58:25;16.70;99.90
49855;DHT22;35752;52.164;21.244;2022-09-01T08:00:55;16.70;99.90
49855;DHT22;35752;52.164;21.244;2022-09-01T08:03:28;16.80;99.90
49855;DHT22;35752;52.164;21.244;2022-09-01T08:06:06;16.90;99.90
49855;DHT22;35752;52.164;21.244;2022-09-01T08:08:33;17.10;99.90
49855;DHT22;35752;52.164;21.244;2022-09-01T08:11:02;17.30;99.90
49855;DHT22;35752;52.164;21.244;2022-09-01T08:13:29;17.50;99.90
49855;DHT22;35752;52.164;21.244;2022-09-01T08:15:55;17.50;99.90
49855;DHT22;35752;52.164;21.244;2022-09-01T08:18:21;17.50;99.90
49855;DHT22;35752;52.164;21.244;2022-09-01T08:20:46;17.60;99.90
49855;DHT22;35752;52.164;21.244;2022-09-01T08:23:18;17.70;99.90
49855;DHT22;35752;52.164;21.244;2022-09-01T08:25:45;17.90;99.90
49855;DHT22;35752;52.164;21.244;2022-09-01T08:28:12;18.10;99.90
49855;DHT22;35752;52.164;21.244;2022-09-01T08:30:40;18.30;99.90
49855;DHT22;35752;52.164;21.244;2022-09-01T08:33:07;18.30;99.90
49855;DHT22;35752;52.164;21.244;2022-09-01T08:35:41;18.20;99.90
49855;DHT22;35752;52.164;21.244;2022-09-01T08:38:07;18.20;99.90
49855;DHT22;35752;52.164;21.244;2022-09-01T08:40:34;18.20;99.90
49855;DHT22;35752;52.164;21.244;2022-09-01T08:43:15;18.10;99.90
49855;DHT22;35752;52.164;21.244;2022-09-01T08:45:50;18.00;99.90
49855;DHT22;35752;52.164;21.244;2022-09-01T08:50:58;17.90;99.90
49855;DHT22;35752;52.164;21.244;2022-09-01T08:53:32;17.90;99.90
49855;DHT22;35752;52.164;21.244;2022-09-01T08:56:00;17.80;99.90
49855;DHT22;35752;52.164;21.244;2022-09-01T08:58:28;17.90;99.90
49855;DHT22;35752;52.164;21.244;2022-09-01T09:01:02;18.10;99.90
49855;DHT22;35752;52.164;21.244;2022-09-01T09:03:51;18.30;99.90
49855;DHT22;35752;52.164;21.244;2022-09-01T09:06:41;18.50;99.90
49855;DHT22;35752;52.164;21.244;2022-09-01T09:09:11;18.40;99.90
49855;DHT22;35752;52.164;21.244;2022-09-01T09:14:28;18.40;99.90
49855;DHT22;35752;52.164;21.244;2022-09-01T09:16:58;18.20;99.90
49855;DHT22;35752;52.164;21.244;2022-09-01T09:19:31;18.00;99.90
49855;DHT22;35752;52.164;21.244;2022-09-01T09:22:00;18.10;99.90
49855;DHT22;35752;52.164;21.244;2022-09-01T09:26:56;18.40;99.90
49855;DHT22;35752;52.164;21.244;2022-09-01T09:29:26;18.40;99.90
49855;DHT22;35752;52.164;21.244;2022-09-01T09:32:06;18.50;99.90
49855;DHT22;35752;52.164;21.244;2022-09-01T09:34:36;18.60;99.90
49855;DHT22;35752;52.164;21.244;2022-09-01T09:37:26;18.90;99.90
49855;DHT22;35752;52.164;21.244;2022-09-01T09:40:14;19.00;99.40
49855;DHT22;35752;52.164;21.244;2022-09-01T09:45:32;18.90;99.30
49855;DHT22;35752;52.164;21.244;2022-09-01T09:48:06;18.70;99.60
49855;DHT22;35752;52.164;21.244;2022-09-01T09:50:36;18.90;99.80
49855;DHT22;35752;52.164;21.244;2022-09-01T09:58:41;19.40;98.70
49855;DHT22;35752;52.164;21.244;2022-09-01T10:03:50;19.30;92.60
49855;DHT22;35752;52.164;21.244;2022-09-01T10:06:39;19.10;91.60
49855;DHT22;35752;52.164;21.244;2022-09-01T10:09:33;19.30;93.10
49855;DHT22;35752;52.164;21.244;2022-09-01T10:12:00;19.40;93.60
49855;DHT22;35752;52.164;21.244;2022-09-01T10:14:34;19.60;92.70
49855;DHT22;35752;52.164;21.244;2022-09-01T10:17:15;19.70;93.40
49855;DHT22;35752;52.164;21.244;2022-09-01T10:19:58;19.80;93.20
49855;DHT22;35752;52.164;21.244;2022-09-01T10:22:30;19.70;91.30
49855;DHT22;35752;52.164;21.244;2022-09-01T10:24:58;19.50;92.10
49855;DHT22;35752;52.164;21.244;2022-09-01T10:27:28;19.60;92.20
49855;DHT22;35752;52.164;21.244;2022-09-01T10:30:02;19.40;91.50
49855;DHT22;35752;52.164;21.244;2022-09-01T10:32:41;19.20;90.40
49855;DHT22;35752;52.164;21.244;2022-09-01T10:35:21;19.10;89.60
49855;DHT22;35752;52.164;21.244;2022-09-01T10:37:48;19.30;90.70
49855;DHT22;35752;52.164;21.244;2022-09-01T10:43:45;19.90;88.40
49855;DHT22;35752;52.164;21.244;2022-09-01T10:48:52;19.90;90.70
49855;DHT22;35752;52.164;21.244;2022-09-01T10:53:48;20.00;91.30
49855;DHT22;35752;52.164;21.244;2022-09-01T10:56:24;20.00;91.40
49855;DHT22;35752;52.164;21.244;2022-09-01T11:07:02;20.20;90.90
49855;DHT22;35752;52.164;21.244;2022-09-01T11:09:38;20.40;89.00
49855;DHT22;35752;52.164;21.244;2022-09-01T11:12:30;20.50;87.20
49855;DHT22;35752;52.164;21.244;2022-09-01T11:20:32;20.50;85.80
49855;DHT22;35752;52.164;21.244;2022-09-01T11:23:25;20.50;85.90
49855;DHT22;35752;52.164;21.244;2022-09-01T11:26:02;20.40;84.90
49855;DHT22;35752;52.164;21.244;2022-09-01T11:28:47;20.50;82.70
49855;DHT22;35752;52.164;21.244;2022-09-01T11:31:27;20.50;83.60
49855;DHT22;35752;52.164;21.244;2022-09-01T11:34:17;20.40;85.20
49855;DHT22;35752;52.164;21.244;2022-09-01T11:42:23;20.00;85.30
49855;DHT22;35752;52.164;21.244;2022-09-01T11:45:10;20.00;84.10
49855;DHT22;35752;52.164;21.244;2022-09-01T11:47:44;20.20;82.00
49855;DHT22;35752;52.164;21.244;2022-09-01T11:53:03;20.80;81.30
49855;DHT22;35752;52.164;21.244;2022-09-01T11:55:34;20.80;77.80
49855;DHT22;35752;52.164;21.244;2022-09-01T11:58:00;20.50;77.60
49855;DHT22;35752;52.164;21.244;2022-09-01T12:00:40;20.30;78.90
49855;DHT22;35752;52.164;21.244;2022-09-01T12:05:52;20.00;82.50
49855;DHT22;35752;52.164;21.244;2022-09-01T12:08:38;20.10;82.70
49855;DHT22;35752;52.164;21.244;2022-09-01T12:11:29;20.20;82.20
49855;DHT22;35752;52.164;21.244;2022-09-01T12:14:21;20.50;79.60
49855;DHT22;35752;52.164;21.244;2022-09-01T12:17:02;20.30;81.20
49855;DHT22;35752;52.164;21.244;2022-09-01T12:19:31;20.00;81.40
49855;DHT22;35752;52.164;21.244;2022-09-01T12:22:16;19.90;81.20
49855;DHT22;35752;52.164;21.244;2022-09-01T12:24:52;20.00;77.60
49855;DHT22;35752;52.164;21.244;2022-09-01T12:27:20;20.20;77.60
49855;DHT22;35752;52.164;21.244;2022-09-01T12:29:48;20.30;75.80
49855;DHT22;35752;52.164;21.244;2022-09-01T12:32:24;20.50;74.80
49855;DHT22;35752;52.164;21.244;2022-09-01T12:35:30;20.60;74.70
49855;DHT22;35752;52.164;21.244;2022-09-01T12:38:28;20.50;74.30
49855;DHT22;35752;52.164;21.244;2022-09-01T12:40:58;20.40;76.70
49855;DHT22;35752;52.164;21.244;2022-09-01T12:43:39;20.10;76.50
49855;DHT22;35752;52.164;21.244;2022-09-01T12:46:49;19.70;75.80
49855;DHT22;35752;52.164;21.244;2022-09-01T12:57:36;19.50;76.00
49855;DHT22;35752;52.164;21.244;2022-09-01T13:00:19;19.70;75.00
49855;DHT22;35752;52.164;21.244;2022-09-01T13:03:14;19.60;75.70
49855;DHT22;35752;52.164;21.244;2022-09-01T13:05:44;19.70;74.40
49855;DHT22;35752;52.164;21.244;2022-09-01T13:08:15;19.70;74.50
49855;DHT22;35752;52.164;21.244;2022-09-01T13:10:58;19.60;74.00
49855;DHT22;35752;52.164;21.244;2022-09-01T13:13:28;19.60;76.10
49855;DHT22;35752;52.164;21.244;2022-09-01T13:16:07;19.50;75.40
49855;DHT22;35752;52.164;21.244;2022-09-01T13:18:50;19.50;77.30
49855;DHT22;35752;52.164;21.244;2022-09-01T13:21:38;19.40;76.20
49855;DHT22;35752;52.164;21.244;2022-09-01T13:24:31;19.40;75.60
49855;DHT22;35752;52.164;21.244;2022-09-01T13:26:57;19.60;77.00
49855;DHT22;35752;52.164;21.244;2022-09-01T13:29:25;19.80;74.30
49855;DHT22;35752;52.164;21.244;2022-09-01T13:32:00;19.90;73.10
49855;DHT22;35752;52.164;21.244;2022-09-01T13:34:34;20.00;73.70
49855;DHT22;35752;52.164;21.244;2022-09-01T13:37:00;19.90;72.80
49855;DHT22;35752;52.164;21.244;2022-09-01T13:39:33;19.90;74.00
49855;DHT22;35752;52.164;21.244;2022-09-01T13:42:02;19.70;73.40
49855;DHT22;35752;52.164;21.244;2022-09-01T13:44:36;19.60;74.30
49855;DHT22;35752;52.164;21.244;2022-09-01T13:47:05;19.40;74.90
49855;DHT22;35752;52.164;21.244;2022-09-01T13:49:37;19.30;74.90
49855;DHT22;35752;52.164;21.244;2022-09-01T13:52:09;19.20;75.40
49855;DHT22;35752;52.164;21.244;2022-09-01T13:54:41;19.20;77.00
49855;DHT22;35752;52.164;21.244;2022-09-01T13:57:11;19.20;77.00
49855;DHT22;35752;52.164;21.244;2022-09-01T13:59:47;19.10;77.60
49855;DHT22;35752;52.164;21.244;2022-09-01T14:02:16;19.10;78.30
49855;DHT22;35752;52.164;21.244;2022-09-01T14:04:48;18.90;78.40
49855;DHT22;35752;52.164;21.244;2022-09-01T14:07:14;18.90;79.30
49855;DHT22;35752;52.164;21.244;2022-09-01T14:09:55;18.90;81.30
49855;DHT22;35752;52.164;21.244;2022-09-01T14:12:36;18.80;79.80
49855;DHT22;35752;52.164;21.244;2022-09-01T14:15:03;18.80;80.80
49855;DHT22;35752;52.164;21.244;2022-09-01T14:17:39;18.60;80.70
49855;DHT22;35752;52.164;21.244;2022-09-01T14:20:17;18.60;80.90
49855;DHT22;35752;52.164;21.244;2022-09-01T14:22:54;18.60;82.50
49855;DHT22;35752;52.164;21.244;2022-09-01T14:25:30;18.70;81.10
49855;DHT22;35752;52.164;21.244;2022-09-01T14:27:56;18.70;82.60
49855;DHT22;35752;52.164;21.244;2022-09-01T14:30:30;18.80;82.20
49855;DHT22;35752;52.164;21.244;2022-09-01T14:33:31;19.00;80.70
49855;DHT22;35752;52.164;21.244;2022-09-01T14:35:56;19.10;80.10
49855;DHT22;35752;52.164;21.244;2022-09-01T14:38:31;19.20;77.40
49855;DHT22;35752;52.164;21.244;2022-09-01T14:41:01;19.30;78.00
49855;DHT22;35752;52.164;21.244;2022-09-01T14:43:27;19.40;76.40
49855;DHT22;35752;52.164;21.244;2022-09-01T14:46:09;19.50;78.60
49855;DHT22;35752;52.164;21.244;2022-09-01T14:48:41;19.50;77.80
49855;DHT22;35752;52.164;21.244;2022-09-01T14:51:35;19.50;76.40
49855;DHT22;35752;52.164;21.244;2022-09-01T14:54:14;19.40;76.60
49855;DHT22;35752;52.164;21.244;2022-09-01T14:56:39;19.30;75.70
49855;DHT22;35752;52.164;21.244;2022-09-01T14:59:08;19.10;75.80
49855;DHT22;35752;52.164;21.244;2022-09-01T15:01:35;18.90;76.20
49855;DHT22;35752;52.164;21.244;2022-09-01T15:04:04;18.80;77.20
49855;DHT22;35752;52.164;21.244;2022-09-01T15:06:32;18.60;78.30
49855;DHT22;35752;52.164;21.244;2022-09-01T15:09:00;18.50;79.80
49855;DHT22;35752;52.164;21.244;2022-09-01T15:11:33;18.40;79.80
49855;DHT22;35752;52.164;21.244;2022-09-01T15:14:05;18.30;80.60
49855;DHT22;35752;52.164;21.244;2022-09-01T15:16:31;18.40;79.60
49855;DHT22;35752;52.164;21.244;2022-09-01T15:19:04;18.50;81.00
49855;DHT22;35752;52.164;21.244;2022-09-01T15:21:41;18.50;79.70
49855;DHT22;35752;52.164;21.244;2022-09-01T15:24:08;18.70;79.00
49855;DHT22;35752;52.164;21.244;2022-09-01T15:26:52;18.70;77.30
49855;DHT22;35752;52.164;21.244;2022-09-01T15:29:25;18.70;77.60
49855;DHT22;35752;52.164;21.244;2022-09-01T15:31:57;18.80;77.00
49855;DHT22;35752;52.164;21.244;2022-09-01T15:34:22;18.80;76.40
49855;DHT22;35752;52.164;21.244;2022-09-01T15:36:48;18.80;76.20
49855;DHT22;35752;52.164;21.244;2022-09-01T15:39:13;18.80;77.00
49855;DHT22;35752;52.164;21.244;2022-09-01T15:41:39;18.90;75.80
49855;DHT22;35752;52.164;21.244;2022-09-01T15:44:13;18.90;77.00
49855;DHT22;35752;52.164;21.244;2022-09-01T15:46:45;18.90;76.60
49855;DHT22;35752;52.164;21.244;2022-09-01T15:49:17;18.90;76.80
49855;DHT22;35752;52.164;21.244;2022-09-01T15:51:43;18.90;76.80
49855;DHT22;35752;52.164;21.244;2022-09-01T15:54:23;18.90;77.40
49855;DHT22;35752;52.164;21.244;2022-09-01T15:56:49;18.90;78.10
49855;DHT22;35752;52.164;21.244;2022-09-01T15:59:18;18.90;77.70
49855;DHT22;35752;52.164;21.244;2022-09-01T16:01:53;18.80;78.50
49855;DHT22;35752;52.164;21.244;2022-09-01T16:04:28;18.80;76.50
49855;DHT22;35752;52.164;21.244;2022-09-01T16:06:54;18.70;76.60
49855;DHT22;35752;52.164;21.244;2022-09-01T16:09:21;18.80;76.60
49855;DHT22;35752;52.164;21.244;2022-09-01T16:11:46;18.70;76.50
49855;DHT22;35752;52.164;21.244;2022-09-01T16:14:21;18.70;77.00
49855;DHT22;35752;52.164;21.244;2022-09-01T16:17:14;18.60;77.30
49855;DHT22;35752;52.164;21.244;2022-09-01T16:23:24;18.50;79.40
49855;DHT22;35752;52.164;21.244;2022-09-01T16:26:06;18.40;77.60
49855;DHT22;35752;52.164;21.244;2022-09-01T16:28:44;18.40;79.10
49855;DHT22;35752;52.164;21.244;2022-09-01T16:31:25;18.30;79.30
49855;DHT22;35752;52.164;21.244;2022-09-01T16:34:14;18.20;79.00
49855;DHT22;35752;52.164;21.244;2022-09-01T16:43:47;17.90;80.80
49855;DHT22;35752;52.164;21.244;2022-09-01T16:46:42;17.80;81.10
49855;DHT22;35752;52.164;21.244;2022-09-01T17:02:05;17.40;85.30
49855;DHT22;35752;52.164;21.244;2022-09-01T17:09:50;17.20;88.20
49855;DHT22;35752;52.164;21.244;2022-09-01T17:12:48;17.10;88.30
49855;DHT22;35752;52.164;21.244;2022-09-01T17:15:34;17.00;88.80
49855;DHT22;35752;52.164;21.244;2022-09-01T17:21:39;16.70;95.90
49855;DHT22;35752;52.164;21.244;2022-09-01T17:24:51;16.50;98.30